メインページ
METAR-TAF:

METAR-TAF

空港 :

St. Clair County International Airport

Port Huron, ミシガン州, アメリカ合衆国

緯度: 42-55N, 経度: 082-32W, 海抜: 198m

現時点の気象観測

当レポートは19分前の12:37(UTC)に作成
南/南西の風 4kt
気温 24°C
湿度 83%
気圧 1015 hPa
視程: 16.1km
晴天

METAR: KPHN 161237Z AUTO 20004KT 10SM CLR 24/21 A2998 RMK AO2

時間: 08:56 (12:56 UTC)


TAF: 見つかりません

4,000以上の空港の気象観測と天気予報(METAR報とTAF報)

利用可能な観測所は地図上に黄色い丸と赤い丸で示す。

丸の上にカーソルを重ねると観測所名を参照できる。

次にクリックすると気象観測と天気予報を参照できる。

マップの切り替え:黒色「×」印の緑ボタンをクリックして拡大、「-」印の緑ボタンをクリックして縮小、緑色の三角印をクリックして隣りの地図に切り替え


METAR-TAF: